createdAt,value
2018-10-18T00:02:26.211Z,87.60
2018-10-18T00:04:55.519Z,87.80
2018-10-18T00:07:24.744Z,88.00
2018-10-18T00:09:53.463Z,87.80
2018-10-18T00:12:22.082Z,88.10
2018-10-18T00:14:50.620Z,88.70
2018-10-18T00:17:25.944Z,87.70
2018-10-18T00:19:54.571Z,87.70
2018-10-18T00:22:23.658Z,87.50
2018-10-18T00:24:52.192Z,87.70
2018-10-18T00:27:21.546Z,88.00
2018-10-18T00:29:49.955Z,88.20
2018-10-18T00:32:18.324Z,88.10
2018-10-18T00:34:47.172Z,88.50
2018-10-18T00:37:16.588Z,88.70
2018-10-18T00:39:45.043Z,89.50
2018-10-18T00:42:13.567Z,90.00
2018-10-18T00:44:41.923Z,90.00
2018-10-18T00:47:10.963Z,89.80
2018-10-18T00:49:40.767Z,89.20
2018-10-18T00:52:09.181Z,88.90
2018-10-18T00:54:39.765Z,88.80
2018-10-18T00:57:08.224Z,88.80
2018-10-18T00:59:38.940Z,88.40
2018-10-18T01:02:07.460Z,88.00
2018-10-18T01:04:36.336Z,88.10
2018-10-18T01:07:08.137Z,88.00
2018-10-18T01:09:36.631Z,87.80
2018-10-18T01:12:05.391Z,87.80
2018-10-18T01:14:33.688Z,88.00
2018-10-18T01:17:02.162Z,88.20
2018-10-18T01:22:20.729Z,89.20
2018-10-18T01:24:49.637Z,89.10
2018-10-18T01:27:18.100Z,88.80
2018-10-18T01:29:49.253Z,88.80
2018-10-18T01:32:18.364Z,88.80
2018-10-18T01:34:47.209Z,88.80
2018-10-18T01:37:15.635Z,89.50
2018-10-18T01:39:44.194Z,90.00
2018-10-18T01:42:13.466Z,89.70
2018-10-18T01:44:42.493Z,89.90
2018-10-18T01:47:11.105Z,89.60
2018-10-18T01:49:39.817Z,89.70
2018-10-18T01:52:08.778Z,89.70
2018-10-18T01:54:37.472Z,89.40
2018-10-18T01:57:06.724Z,89.30
2018-10-18T01:59:36.109Z,89.60
2018-10-18T02:02:04.662Z,90.00
2018-10-18T02:04:33.420Z,89.60
2018-10-18T02:07:02.452Z,89.40
2018-10-18T02:09:31.928Z,89.30
2018-10-18T02:12:00.396Z,89.20
2018-10-18T02:14:28.832Z,89.40
2018-10-18T02:16:57.668Z,89.40
2018-10-18T02:19:26.183Z,89.40
2018-10-18T02:21:54.549Z,89.70
2018-10-18T02:24:23.003Z,90.30
2018-10-18T02:26:51.490Z,90.10
2018-10-18T02:29:20.736Z,90.20
2018-10-18T02:31:49.193Z,90.40
2018-10-18T02:34:17.653Z,90.40
2018-10-18T02:36:46.094Z,90.10
2018-10-18T02:39:18.922Z,90.20
2018-10-18T02:41:47.892Z,90.00
2018-10-18T02:44:16.676Z,89.60
2018-10-18T02:46:45.468Z,89.20
2018-10-18T02:49:13.907Z,89.10
2018-10-18T02:51:42.545Z,89.60
2018-10-18T02:54:11.888Z,90.00
2018-10-18T02:56:40.279Z,90.00
2018-10-18T02:59:08.833Z,90.00
2018-10-18T03:01:37.886Z,90.10
2018-10-18T03:04:06.311Z,90.20
2018-10-18T03:06:34.759Z,90.30
2018-10-18T03:09:03.304Z,90.40
2018-10-18T03:11:31.763Z,90.50
2018-10-18T03:14:00.155Z,90.70
2018-10-18T03:16:28.598Z,90.60
2018-10-18T03:18:57.969Z,90.70
2018-10-18T03:21:26.693Z,91.10
2018-10-18T03:24:02.221Z,91.30
2018-10-18T03:26:31.008Z,91.20
2018-10-18T03:28:59.423Z,91.40
2018-10-18T03:31:27.849Z,91.50
2018-10-18T03:36:32.195Z,91.70
2018-10-18T03:39:00.391Z,91.50
2018-10-18T03:41:28.589Z,91.20
2018-10-18T03:43:56.717Z,91.10
2018-10-18T03:46:24.903Z,90.90
2018-10-18T03:48:53.087Z,90.80
2018-10-18T03:51:21.247Z,90.60
2018-10-18T03:53:49.398Z,90.60
2018-10-18T03:56:17.588Z,90.80
2018-10-18T03:58:45.760Z,90.80
2018-10-18T04:01:13.942Z,90.80
2018-10-18T04:03:42.107Z,90.90
2018-10-18T04:06:10.296Z,91.00
2018-10-18T04:08:38.457Z,91.10
2018-10-18T04:11:06.643Z,91.20
2018-10-18T04:13:34.851Z,91.20
2018-10-18T04:16:03.040Z,91.30
2018-10-18T04:18:31.236Z,91.20
2018-10-18T04:20:59.398Z,91.30
2018-10-18T04:23:33.171Z,91.50
2018-10-18T04:26:02.403Z,91.60
2018-10-18T04:28:31.283Z,92.00
2018-10-18T04:30:59.831Z,91.90
2018-10-18T04:33:28.019Z,91.80
2018-10-18T04:35:56.291Z,92.00
2018-10-18T04:38:24.412Z,92.00
2018-10-18T04:40:52.603Z,91.80
2018-10-18T04:43:20.779Z,91.70
2018-10-18T04:45:48.931Z,91.60
2018-10-18T04:48:17.141Z,91.60
2018-10-18T04:50:45.348Z,91.70
2018-10-18T04:53:13.512Z,91.80
2018-10-18T04:55:41.719Z,92.00
2018-10-18T04:58:09.959Z,92.10
2018-10-18T05:00:38.177Z,92.00
2018-10-18T05:03:06.379Z,92.00
2018-10-18T05:05:48.656Z,92.00
2018-10-18T05:08:16.814Z,92.10
2018-10-18T05:10:44.980Z,92.00
2018-10-18T05:13:13.181Z,91.40
2018-10-18T05:15:41.347Z,91.20
2018-10-18T05:18:09.518Z,91.00
2018-10-18T05:20:37.760Z,91.40
2018-10-18T05:23:06.251Z,91.60
2018-10-18T05:25:34.817Z,91.80
2018-10-18T05:28:03.519Z,91.90
2018-10-18T05:30:31.690Z,92.00
2018-10-18T05:32:59.906Z,92.00
2018-10-18T05:35:28.097Z,92.50
2018-10-18T05:37:56.272Z,92.50
2018-10-18T05:40:24.463Z,92.60
2018-10-18T05:42:52.703Z,92.80
2018-10-18T05:45:20.819Z,93.70
2018-10-18T05:47:49.019Z,93.10
2018-10-18T05:50:17.216Z,93.20
2018-10-18T05:52:45.383Z,92.70
2018-10-18T05:55:13.714Z,92.60
2018-10-18T05:57:42.243Z,92.40
2018-10-18T06:00:13.837Z,92.40
2018-10-18T06:02:42.014Z,92.30
2018-10-18T06:05:11.235Z,92.00
2018-10-18T06:07:39.389Z,91.30
2018-10-18T06:10:19.055Z,90.30
2018-10-18T06:12:47.272Z,89.60
2018-10-18T06:15:15.451Z,87.40
2018-10-18T06:17:44.307Z,86.10
2018-10-18T06:20:12.467Z,83.20
2018-10-18T06:22:41.523Z,82.60
2018-10-18T06:25:10.390Z,79.20
2018-10-18T06:27:38.460Z,76.50
2018-10-18T06:30:08.558Z,76.50
2018-10-18T06:32:36.723Z,75.70
2018-10-18T06:35:05.922Z,72.50
2018-10-18T06:37:34.166Z,71.30
2018-10-18T06:40:02.335Z,71.20
2018-10-18T06:42:30.519Z,72.00
2018-10-18T06:44:58.696Z,71.90
2018-10-18T06:47:26.994Z,72.10
2018-10-18T06:49:55.190Z,73.10
2018-10-18T06:52:23.451Z,75.70
2018-10-18T06:54:51.639Z,77.50
2018-10-18T06:57:19.810Z,79.50
2018-10-18T06:59:48.029Z,80.00
2018-10-18T07:02:16.122Z,81.30
2018-10-18T07:04:44.295Z,82.00
2018-10-18T07:07:12.470Z,83.90
2018-10-18T07:09:40.655Z,85.10
2018-10-18T07:12:08.872Z,85.70
2018-10-18T07:14:36.995Z,84.50
2018-10-18T07:17:05.942Z,84.00
2018-10-18T07:19:34.147Z,87.60
2018-10-18T07:22:02.329Z,86.60
2018-10-18T07:24:30.490Z,86.80
2018-10-18T07:26:58.670Z,85.10
2018-10-18T07:29:26.911Z,85.30
2018-10-18T07:31:55.115Z,85.10
2018-10-18T07:34:23.367Z,83.60
2018-10-18T07:36:51.563Z,83.80
2018-10-18T07:39:19.731Z,83.90
2018-10-18T07:41:47.907Z,83.70
2018-10-18T07:44:16.111Z,83.30
2018-10-18T07:46:44.365Z,84.20
2018-10-18T07:49:12.499Z,83.10
2018-10-18T07:51:40.666Z,81.90
2018-10-18T07:54:08.934Z,82.90
2018-10-18T07:56:37.038Z,82.10
2018-10-18T07:59:05.438Z,80.50
2018-10-18T08:01:33.635Z,79.40
2018-10-18T08:04:01.812Z,78.10
2018-10-18T08:06:29.973Z,76.90
2018-10-18T08:08:58.163Z,76.20
2018-10-18T08:11:26.339Z,75.50
2018-10-18T08:13:54.555Z,74.40
2018-10-18T08:16:22.731Z,74.90
2018-10-18T08:18:50.922Z,74.40
2018-10-18T08:21:19.087Z,73.70
2018-10-18T08:23:47.275Z,73.70
2018-10-18T08:26:15.444Z,73.40
2018-10-18T08:28:43.631Z,72.20
2018-10-18T08:31:11.898Z,71.50
2018-10-18T08:33:39.979Z,70.70
2018-10-18T08:36:08.192Z,70.10
2018-10-18T08:38:36.367Z,68.30
2018-10-18T08:41:05.219Z,66.40
2018-10-18T08:43:33.395Z,66.30
2018-10-18T08:46:01.592Z,66.30
2018-10-18T08:48:29.762Z,66.50
2018-10-18T08:50:57.956Z,65.60
2018-10-18T08:53:26.152Z,65.10
2018-10-18T08:55:54.364Z,64.80
2018-10-18T08:58:22.547Z,63.70
2018-10-18T09:00:50.739Z,63.10
2018-10-18T09:03:18.947Z,63.50
2018-10-18T09:05:47.155Z,63.10
2018-10-18T09:08:15.368Z,62.70
2018-10-18T09:10:43.532Z,62.50
2018-10-18T09:13:11.763Z,61.30
2018-10-18T09:15:39.878Z,58.70
2018-10-18T09:18:08.041Z,56.10
2018-10-18T09:20:36.231Z,54.30
2018-10-18T09:23:04.518Z,53.10
2018-10-18T09:25:32.718Z,51.70
2018-10-18T09:28:00.892Z,50.80
2018-10-18T09:30:29.200Z,49.50
2018-10-18T09:32:57.283Z,45.40
2018-10-18T09:35:25.507Z,43.40
2018-10-18T09:37:53.718Z,41.30
2018-10-18T09:40:21.883Z,40.80
2018-10-18T09:42:50.049Z,38.80
2018-10-18T09:45:18.243Z,37.10
2018-10-18T09:47:46.411Z,37.40
2018-10-18T09:50:14.603Z,38.20
2018-10-18T09:52:42.801Z,38.30
2018-10-18T09:55:12.051Z,37.80
2018-10-18T09:57:40.450Z,36.90
2018-10-18T10:00:12.948Z,36.00
2018-10-18T10:02:46.618Z,36.20
2018-10-18T10:05:14.800Z,35.60
2018-10-18T10:07:43.131Z,34.00
2018-10-18T10:10:11.476Z,31.80
2018-10-18T10:12:39.668Z,32.20
2018-10-18T10:15:07.879Z,32.50
2018-10-18T10:17:36.057Z,34.90
2018-10-18T10:20:04.258Z,35.00
2018-10-18T10:22:32.486Z,35.20
2018-10-18T10:25:00.717Z,35.40
2018-10-18T10:27:28.864Z,35.20
2018-10-18T10:29:57.665Z,35.80
2018-10-18T10:32:26.442Z,36.20
2018-10-18T10:34:54.969Z,37.20
2018-10-18T10:37:23.151Z,37.80
2018-10-18T10:39:51.320Z,37.80
2018-10-18T10:42:19.538Z,38.60
2018-10-18T10:44:47.723Z,38.80
2018-10-18T10:47:15.855Z,39.20
2018-10-18T10:49:44.027Z,38.70
2018-10-18T10:52:12.311Z,38.40
2018-10-18T10:54:40.441Z,38.30
2018-10-18T10:57:08.900Z,38.70
2018-10-18T10:59:37.011Z,39.60
2018-10-18T11:02:05.597Z,40.60
2018-10-18T11:04:33.741Z,40.80
2018-10-18T11:07:01.946Z,41.10
2018-10-18T11:09:30.133Z,42.10
2018-10-18T11:11:58.388Z,43.40
2018-10-18T11:14:26.730Z,45.30
2018-10-18T11:16:54.927Z,45.60
2018-10-18T11:19:23.113Z,46.50
2018-10-18T11:21:51.376Z,46.80
2018-10-18T11:24:19.666Z,48.40
2018-10-18T11:26:47.764Z,47.30
2018-10-18T11:29:15.959Z,46.70
2018-10-18T11:31:44.159Z,46.80
2018-10-18T11:34:12.370Z,47.30
2018-10-18T11:36:40.612Z,47.80
2018-10-18T11:39:09.323Z,47.00
2018-10-18T11:41:37.508Z,47.30
2018-10-18T11:44:05.832Z,46.30
2018-10-18T11:46:34.147Z,44.80
2018-10-18T11:49:02.338Z,46.80
2018-10-18T11:51:30.539Z,47.00
2018-10-18T11:53:58.714Z,47.10
2018-10-18T11:56:26.911Z,47.20
2018-10-18T11:58:55.121Z,45.50
2018-10-18T12:01:23.432Z,46.40
2018-10-18T12:03:51.524Z,45.40
2018-10-18T12:06:19.704Z,44.90
2018-10-18T12:08:47.863Z,43.90
2018-10-18T12:11:16.238Z,43.20
2018-10-18T12:13:44.281Z,44.10
2018-10-18T12:16:12.512Z,45.40
2018-10-18T12:18:40.676Z,46.80
2018-10-18T12:21:08.894Z,46.70
2018-10-18T12:23:37.075Z,45.40
2018-10-18T12:26:05.337Z,44.90
2018-10-18T12:28:33.687Z,44.80
2018-10-18T12:31:01.890Z,45.60
2018-10-18T12:33:30.123Z,45.60
2018-10-18T12:35:58.456Z,46.60
2018-10-18T12:38:26.724Z,46.80
2018-10-18T12:40:55.094Z,47.30
2018-10-18T12:43:23.319Z,47.90
2018-10-18T12:45:51.747Z,48.20
2018-10-18T12:48:20.150Z,48.30
2018-10-18T12:50:48.207Z,49.00
2018-10-18T12:53:16.436Z,47.90
2018-10-18T12:55:44.612Z,48.00
2018-10-18T12:58:12.819Z,48.50
2018-10-18T13:00:41.111Z,48.10
2018-10-18T13:03:09.368Z,48.70
2018-10-18T13:05:37.571Z,49.00
2018-10-18T13:08:05.829Z,50.10
2018-10-18T13:10:34.018Z,50.10
2018-10-18T13:13:02.488Z,49.50
2018-10-18T13:15:30.804Z,49.70
2018-10-18T13:17:59.011Z,50.50
2018-10-18T13:20:27.225Z,50.80
2018-10-18T13:22:55.427Z,50.90
2018-10-18T13:25:23.666Z,51.40
2018-10-18T13:27:51.791Z,51.40
2018-10-18T13:30:19.972Z,50.80
2018-10-18T13:32:48.240Z,51.30
2018-10-18T13:35:16.450Z,52.50
2018-10-18T13:37:44.664Z,52.70
2018-10-18T13:40:12.851Z,53.40
2018-10-18T13:42:41.039Z,54.00
2018-10-18T13:45:09.253Z,54.40
2018-10-18T13:47:37.439Z,54.90
2018-10-18T13:50:06.507Z,55.80
2018-10-18T13:52:34.695Z,55.90
2018-10-18T13:55:03.844Z,55.60
2018-10-18T13:57:32.161Z,56.20
2018-10-18T14:00:21.342Z,55.10
2018-10-18T14:02:50.404Z,56.80
2018-10-18T14:05:19.063Z,57.00
2018-10-18T14:07:47.771Z,57.90
2018-10-18T14:10:16.062Z,58.40
2018-10-18T14:12:44.355Z,58.80
2018-10-18T14:15:12.559Z,58.70
2018-10-18T14:17:40.924Z,58.20
2018-10-18T14:20:09.600Z,58.60
2018-10-18T14:22:37.815Z,59.10
2018-10-18T14:25:06.019Z,59.60
2018-10-18T14:27:34.218Z,59.80
2018-10-18T14:30:02.498Z,60.10
2018-10-18T14:32:30.739Z,59.90
2018-10-18T14:34:58.973Z,59.30
2018-10-18T14:37:27.207Z,59.80
2018-10-18T14:39:55.408Z,60.10
2018-10-18T14:42:23.671Z,60.40
2018-10-18T14:44:52.608Z,60.40
2018-10-18T14:47:22.299Z,60.70
2018-10-18T14:49:50.640Z,60.90
2018-10-18T14:52:19.044Z,61.70
2018-10-18T14:54:47.144Z,61.90
2018-10-18T14:57:15.803Z,61.80
2018-10-18T14:59:44.053Z,61.90
2018-10-18T15:02:12.480Z,62.50
2018-10-18T15:04:40.819Z,62.40
2018-10-18T15:07:09.020Z,62.40
2018-10-18T15:09:37.857Z,62.80
2018-10-18T15:12:06.458Z,62.50
2018-10-18T15:14:34.640Z,63.10
2018-10-18T15:17:02.899Z,63.50
2018-10-18T15:19:31.039Z,64.00
2018-10-18T15:21:59.283Z,64.40
2018-10-18T15:24:27.464Z,64.80
2018-10-18T15:26:55.796Z,66.20
2018-10-18T15:29:23.962Z,65.60
2018-10-18T15:31:52.175Z,66.30
2018-10-18T15:34:20.527Z,66.60
2018-10-18T15:36:48.963Z,66.50
2018-10-18T15:39:17.455Z,67.20
2018-10-18T15:41:45.608Z,68.00
2018-10-18T15:44:13.964Z,68.00
2018-10-18T15:46:42.171Z,68.40
2018-10-18T15:49:10.391Z,68.80
2018-10-18T15:51:38.579Z,69.00
2018-10-18T15:54:07.390Z,69.20
2018-10-18T15:56:35.599Z,69.70
2018-10-18T15:59:04.097Z,70.10
2018-10-18T16:01:32.203Z,70.60
2018-10-18T16:04:00.458Z,71.00
2018-10-18T16:06:28.843Z,71.10
2018-10-18T16:08:57.055Z,71.70
2018-10-18T16:11:25.431Z,72.00
2018-10-18T16:13:53.631Z,72.50
2018-10-18T16:16:21.781Z,72.70
2018-10-18T16:18:49.954Z,73.10
2018-10-18T16:21:18.183Z,73.40
2018-10-18T16:23:46.367Z,74.00
2018-10-18T16:26:14.585Z,74.70
2018-10-18T16:28:42.735Z,75.20
2018-10-18T16:31:10.927Z,75.80
2018-10-18T16:33:39.148Z,76.40
2018-10-18T16:36:07.318Z,76.60
2018-10-18T16:38:35.523Z,76.90
2018-10-18T16:41:03.892Z,77.30
2018-10-18T16:43:31.913Z,77.60
2018-10-18T16:46:00.142Z,78.90
2018-10-18T16:48:28.292Z,79.70
2018-10-18T16:50:56.488Z,80.20
2018-10-18T16:53:24.691Z,80.70
2018-10-18T16:55:52.888Z,80.40
2018-10-18T16:58:21.091Z,82.10
2018-10-18T17:00:49.259Z,82.30
2018-10-18T17:03:17.451Z,82.90
2018-10-18T17:05:45.701Z,83.50
2018-10-18T17:08:13.957Z,83.90
2018-10-18T17:10:42.196Z,84.20
2018-10-18T17:13:10.451Z,84.20
2018-10-18T17:15:38.717Z,84.90
2018-10-18T17:18:06.928Z,84.40
2018-10-18T17:20:35.079Z,84.70
2018-10-18T17:23:03.420Z,85.20
2018-10-18T17:25:31.652Z,85.20
2018-10-18T17:27:59.816Z,85.60
2018-10-18T17:30:28.063Z,85.30
2018-10-18T17:32:56.265Z,85.00
2018-10-18T17:35:24.418Z,84.90
2018-10-18T17:37:52.698Z,85.40
2018-10-18T17:40:21.025Z,85.50
2018-10-18T17:42:49.528Z,86.00
2018-10-18T17:45:17.747Z,85.70
2018-10-18T17:47:45.952Z,86.40
2018-10-18T17:50:14.214Z,86.10
2018-10-18T17:52:42.348Z,86.10
2018-10-18T17:55:10.623Z,86.50
2018-10-18T17:57:39.156Z,86.40
2018-10-18T18:00:09.770Z,86.40
2018-10-18T18:02:38.049Z,86.10
2018-10-18T18:05:06.642Z,86.00
2018-10-18T18:07:34.992Z,87.20
2018-10-18T18:10:03.357Z,86.80
2018-10-18T18:12:31.627Z,87.10
2018-10-18T18:14:59.907Z,87.50
2018-10-18T18:17:28.197Z,87.40
2018-10-18T18:19:56.616Z,87.70
2018-10-18T18:22:24.943Z,88.10
2018-10-18T18:24:53.125Z,88.00
2018-10-18T18:27:21.374Z,88.70
2018-10-18T18:29:49.560Z,89.00
2018-10-18T18:32:17.774Z,90.00
2018-10-18T18:34:45.954Z,90.20
2018-10-18T18:37:14.127Z,89.50
2018-10-18T18:39:42.348Z,89.80
2018-10-18T18:42:10.576Z,90.10
2018-10-18T18:44:38.767Z,89.40
2018-10-18T18:47:06.926Z,89.60
2018-10-18T18:49:35.130Z,90.00
2018-10-18T18:52:03.324Z,89.90
2018-10-18T18:54:31.509Z,90.00
2018-10-18T18:56:59.903Z,90.00
2018-10-18T18:59:28.063Z,90.00
2018-10-18T19:01:56.243Z,90.00
2018-10-18T19:04:24.836Z,89.20
2018-10-18T19:06:53.006Z,89.10
2018-10-18T19:09:21.231Z,89.20
2018-10-18T19:11:49.456Z,89.50
2018-10-18T19:14:17.623Z,89.40
2018-10-18T19:16:45.831Z,90.00
2018-10-18T19:19:14.059Z,90.10
2018-10-18T19:21:42.232Z,89.60
2018-10-18T19:24:10.625Z,89.70
2018-10-18T19:26:38.799Z,89.40
2018-10-18T19:29:06.975Z,88.60
2018-10-18T19:31:35.163Z,88.20
2018-10-18T19:34:03.364Z,88.40
2018-10-18T19:36:31.535Z,89.80
2018-10-18T19:38:59.720Z,89.40
2018-10-18T19:41:27.927Z,88.30
2018-10-18T19:43:56.165Z,88.50
2018-10-18T19:46:24.511Z,88.70
2018-10-18T19:48:52.533Z,89.70
2018-10-18T19:51:20.730Z,89.00
2018-10-18T19:53:48.909Z,88.80
2018-10-18T19:56:17.124Z,89.10
2018-10-18T19:58:45.349Z,89.50
2018-10-18T20:01:13.571Z,89.30
2018-10-18T20:03:41.789Z,89.60
2018-10-18T20:06:09.987Z,89.60
2018-10-18T20:08:38.215Z,90.10
2018-10-18T20:11:06.433Z,90.20
2018-10-18T20:13:34.642Z,90.20
2018-10-18T20:16:02.823Z,90.30
2018-10-18T20:18:31.047Z,90.30
2018-10-18T20:20:59.277Z,90.40
2018-10-18T20:23:27.463Z,90.50
2018-10-18T20:25:55.850Z,90.50
2018-10-18T20:28:23.879Z,90.90
2018-10-18T20:30:52.063Z,90.70
2018-10-18T20:33:20.242Z,90.90
2018-10-18T20:35:48.457Z,91.00
2018-10-18T20:38:16.648Z,91.20
2018-10-18T20:40:44.826Z,91.30
2018-10-18T20:43:13.055Z,91.40
2018-10-18T20:45:41.247Z,91.50
2018-10-18T20:48:09.507Z,91.50
2018-10-18T20:50:37.650Z,90.70
2018-10-18T20:53:06.369Z,90.70
2018-10-18T20:55:34.512Z,90.80
2018-10-18T20:58:02.687Z,90.80
2018-10-18T21:00:30.907Z,90.60
2018-10-18T21:02:59.099Z,90.40
2018-10-18T21:05:27.295Z,90.80
2018-10-18T21:07:55.499Z,90.70
2018-10-18T21:10:23.676Z,90.80
2018-10-18T21:12:51.910Z,90.90
2018-10-18T21:15:20.106Z,91.00
2018-10-18T21:17:48.322Z,91.10
2018-10-18T21:20:16.507Z,91.20
2018-10-18T21:22:44.687Z,91.10
2018-10-18T21:25:12.886Z,91.00
2018-10-18T21:27:41.177Z,91.20
2018-10-18T21:30:09.563Z,91.20
2018-10-18T21:32:37.784Z,90.70
2018-10-18T21:35:05.987Z,91.00
2018-10-18T21:37:34.167Z,91.40
2018-10-18T21:40:02.379Z,91.10
2018-10-18T21:42:30.558Z,91.20
2018-10-18T21:44:59.077Z,91.10
2018-10-18T21:47:27.311Z,90.90
2018-10-18T21:49:55.476Z,90.50
2018-10-18T21:52:23.648Z,90.30
2018-10-18T21:54:51.842Z,90.00
2018-10-18T21:57:20.071Z,90.00
2018-10-18T21:59:48.279Z,89.40
2018-10-18T22:02:16.459Z,89.80
2018-10-18T22:04:44.667Z,89.60
2018-10-18T22:07:12.852Z,89.90
2018-10-18T22:09:41.027Z,89.80
2018-10-18T22:12:09.231Z,90.10
2018-10-18T22:14:37.407Z,90.30
2018-10-18T22:17:05.796Z,90.10
2018-10-18T22:19:33.947Z,90.60
2018-10-18T22:22:02.136Z,90.70
2018-10-18T22:24:30.335Z,90.70
2018-10-18T22:26:58.598Z,90.90
2018-10-18T22:29:26.978Z,90.80
2018-10-18T22:31:55.164Z,90.90
2018-10-18T22:34:23.372Z,90.70
2018-10-18T22:36:51.547Z,91.00
2018-10-18T22:39:19.780Z,90.90
2018-10-18T22:41:47.958Z,90.80
2018-10-18T22:44:16.136Z,90.90
2018-10-18T22:46:44.347Z,91.00
2018-10-18T22:49:12.527Z,91.00
2018-10-18T22:51:40.696Z,90.90
2018-10-18T22:54:08.903Z,91.00
2018-10-18T22:56:37.076Z,91.10
2018-10-18T22:59:05.301Z,91.30
2018-10-18T23:01:33.475Z,91.30
2018-10-18T23:04:01.660Z,91.40
2018-10-18T23:06:29.827Z,91.60
2018-10-18T23:08:58.090Z,91.70
2018-10-18T23:11:26.219Z,91.70
2018-10-18T23:13:54.435Z,91.60
2018-10-18T23:16:22.611Z,91.70
2018-10-18T23:18:50.794Z,91.30
2018-10-18T23:21:19.003Z,91.60
2018-10-18T23:23:47.220Z,91.60
2018-10-18T23:26:15.448Z,91.50
2018-10-18T23:28:43.623Z,91.60
2018-10-18T23:31:11.831Z,91.50
2018-10-18T23:33:40.044Z,91.40
2018-10-18T23:36:08.211Z,91.40
2018-10-18T23:38:36.464Z,91.20
2018-10-18T23:41:05.159Z,91.50
2018-10-18T23:43:33.299Z,91.20
2018-10-18T23:46:01.459Z,91.30
2018-10-18T23:48:29.666Z,91.20
2018-10-18T23:50:57.929Z,90.80
2018-10-18T23:53:26.079Z,91.40
2018-10-18T23:55:54.327Z,90.80
2018-10-18T23:58:22.511Z,91.20
